sensor_id;sensor_type;location;lat;lon;timestamp;P1;durP1;ratioP1;P2;durP2;ratioP2
71626;SDS011;59475;52.464;13.590;2023-07-31T00:00:30;4.60;;;2.00;;
71626;SDS011;59475;52.464;13.590;2023-07-31T00:02:56;3.03;;;1.80;;
71626;SDS011;59475;52.464;13.590;2023-07-31T00:05:21;4.17;;;1.80;;
71626;SDS011;59475;52.464;13.590;2023-07-31T00:07:47;3.13;;;1.60;;
71626;SDS011;59475;52.464;13.590;2023-07-31T00:10:12;4.23;;;1.67;;
71626;SDS011;59475;52.464;13.590;2023-07-31T00:12:38;4.30;;;1.92;;
71626;SDS011;59475;52.464;13.590;2023-07-31T00:15:05;4.67;;;2.10;;
71626;SDS011;59475;52.464;13.590;2023-07-31T00:17:31;2.78;;;1.67;;
71626;SDS011;59475;52.464;13.590;2023-07-31T00:19:57;3.80;;;1.87;;
71626;SDS011;59475;52.464;13.590;2023-07-31T00:22:22;4.03;;;2.30;;
71626;SDS011;59475;52.464;13.590;2023-07-31T00:24:47;4.27;;;2.10;;
71626;SDS011;59475;52.464;13.590;2023-07-31T00:27:13;4.00;;;1.80;;
71626;SDS011;59475;52.464;13.590;2023-07-31T00:29:38;4.60;;;2.20;;
71626;SDS011;59475;52.464;13.590;2023-07-31T00:32:04;3.57;;;2.27;;
71626;SDS011;59475;52.464;13.590;2023-07-31T00:34:29;3.35;;;2.00;;
71626;SDS011;59475;52.464;13.590;2023-07-31T00:36:55;4.53;;;2.20;;
71626;SDS011;59475;52.464;13.590;2023-07-31T00:39:20;4.17;;;2.00;;
71626;SDS011;59475;52.464;13.590;2023-07-31T00:41:45;5.85;;;2.40;;
71626;SDS011;59475;52.464;13.590;2023-07-31T00:44:11;4.80;;;2.30;;
71626;SDS011;59475;52.464;13.590;2023-07-31T00:46:36;4.77;;;2.07;;
71626;SDS011;59475;52.464;13.590;2023-07-31T00:49:02;5.90;;;2.13;;
71626;SDS011;59475;52.464;13.590;2023-07-31T00:51:28;3.53;;;2.10;;
71626;SDS011;59475;52.464;13.590;2023-07-31T00:57:15;3.45;;;2.40;;
71626;SDS011;59475;52.464;13.590;2023-07-31T00:59:41;5.18;;;2.40;;
71626;SDS011;59475;52.464;13.590;2023-07-31T01:02:06;4.90;;;2.20;;
71626;SDS011;59475;52.464;13.590;2023-07-31T01:04:31;5.70;;;2.20;;
71626;SDS011;59475;52.464;13.590;2023-07-31T01:07:08;4.53;;;1.92;;
71626;SDS011;59475;52.464;13.590;2023-07-31T01:12:25;3.72;;;2.60;;
71626;SDS011;59475;52.464;13.590;2023-07-31T01:15:05;6.45;;;2.45;;
71626;SDS011;59475;52.464;13.590;2023-07-31T01:17:34;3.63;;;2.53;;
71626;SDS011;59475;52.464;13.590;2023-07-31T01:20:01;3.27;;;2.13;;
71626;SDS011;59475;52.464;13.590;2023-07-31T01:22:30;3.40;;;2.78;;
71626;SDS011;59475;52.464;13.590;2023-07-31T01:28:32;4.03;;;1.90;;
71626;SDS011;59475;52.464;13.590;2023-07-31T01:31:05;5.25;;;2.70;;
71626;SDS011;59475;52.464;13.590;2023-07-31T01:33:32;3.95;;;2.67;;
71626;SDS011;59475;52.464;13.590;2023-07-31T01:39:21;6.05;;;2.72;;
71626;SDS011;59475;52.464;13.590;2023-07-31T01:41:46;4.33;;;2.77;;
71626;SDS011;59475;52.464;13.590;2023-07-31T01:44:12;5.67;;;2.60;;
71626;SDS011;59475;52.464;13.590;2023-07-31T01:46:37;2.90;;;2.33;;
71626;SDS011;59475;52.464;13.590;2023-07-31T01:49:02;3.27;;;2.20;;
71626;SDS011;59475;52.464;13.590;2023-07-31T01:51:30;4.15;;;2.30;;
71626;SDS011;59475;52.464;13.590;2023-07-31T01:53:58;4.30;;;2.55;;
71626;SDS011;59475;52.464;13.590;2023-07-31T01:56:24;4.40;;;2.60;;
71626;SDS011;59475;52.464;13.590;2023-07-31T01:58:50;6.20;;;2.90;;
71626;SDS011;59475;52.464;13.590;2023-07-31T02:01:15;5.20;;;2.60;;
71626;SDS011;59475;52.464;13.590;2023-07-31T02:03:40;4.57;;;2.50;;
71626;SDS011;59475;52.464;13.590;2023-07-31T02:06:07;3.40;;;2.60;;
71626;SDS011;59475;52.464;13.590;2023-07-31T02:08:32;4.00;;;2.40;;
71626;SDS011;59475;52.464;13.590;2023-07-31T02:10:58;3.20;;;2.80;;
71626;SDS011;59475;52.464;13.590;2023-07-31T02:13:23;2.63;;;2.27;;
71626;SDS011;59475;52.464;13.590;2023-07-31T02:15:48;4.80;;;2.63;;
71626;SDS011;59475;52.464;13.590;2023-07-31T02:18:14;5.23;;;3.00;;
71626;SDS011;59475;52.464;13.590;2023-07-31T02:20:39;5.70;;;2.90;;
71626;SDS011;59475;52.464;13.590;2023-07-31T02:23:04;5.47;;;3.27;;
71626;SDS011;59475;52.464;13.590;2023-07-31T02:25:30;3.87;;;2.53;;
71626;SDS011;59475;52.464;13.590;2023-07-31T02:27:55;4.45;;;3.08;;
71626;SDS011;59475;52.464;13.590;2023-07-31T02:30:21;4.60;;;2.87;;
71626;SDS011;59475;52.464;13.590;2023-07-31T02:32:47;5.72;;;2.95;;
71626;SDS011;59475;52.464;13.590;2023-07-31T02:35:12;5.30;;;2.80;;
71626;SDS011;59475;52.464;13.590;2023-07-31T02:37:40;6.28;;;2.88;;
71626;SDS011;59475;52.464;13.590;2023-07-31T02:40:06;4.13;;;2.53;;
71626;SDS011;59475;52.464;13.590;2023-07-31T02:42:32;4.72;;;2.78;;
71626;SDS011;59475;52.464;13.590;2023-07-31T02:44:57;6.40;;;3.03;;
71626;SDS011;59475;52.464;13.590;2023-07-31T02:47:22;6.20;;;3.20;;
71626;SDS011;59475;52.464;13.590;2023-07-31T02:49:48;4.17;;;2.97;;
71626;SDS011;59475;52.464;13.590;2023-07-31T02:52:13;5.50;;;2.85;;
71626;SDS011;59475;52.464;13.590;2023-07-31T02:54:39;7.50;;;3.40;;
71626;SDS011;59475;52.464;13.590;2023-07-31T02:57:04;7.43;;;3.50;;
71626;SDS011;59475;52.464;13.590;2023-07-31T02:59:30;5.43;;;3.88;;
71626;SDS011;59475;52.464;13.590;2023-07-31T03:01:55;9.77;;;3.50;;
71626;SDS011;59475;52.464;13.590;2023-07-31T03:04:21;7.17;;;3.67;;
71626;SDS011;59475;52.464;13.590;2023-07-31T03:06:46;7.87;;;4.30;;
71626;SDS011;59475;52.464;13.590;2023-07-31T03:09:11;5.07;;;3.90;;
71626;SDS011;59475;52.464;13.590;2023-07-31T03:11:37;9.63;;;5.67;;
71626;SDS011;59475;52.464;13.590;2023-07-31T03:14:02;6.45;;;4.38;;
71626;SDS011;59475;52.464;13.590;2023-07-31T03:16:27;5.20;;;3.80;;
71626;SDS011;59475;52.464;13.590;2023-07-31T03:18:53;5.57;;;4.10;;
71626;SDS011;59475;52.464;13.590;2023-07-31T03:21:19;9.25;;;4.53;;
71626;SDS011;59475;52.464;13.590;2023-07-31T03:23:44;8.33;;;5.00;;
71626;SDS011;59475;52.464;13.590;2023-07-31T03:26:10;8.50;;;4.80;;
71626;SDS011;59475;52.464;13.590;2023-07-31T03:28:35;9.18;;;4.80;;
71626;SDS011;59475;52.464;13.590;2023-07-31T03:31:01;6.97;;;4.50;;
71626;SDS011;59475;52.464;13.590;2023-07-31T03:33:27;5.40;;;4.80;;
71626;SDS011;59475;52.464;13.590;2023-07-31T03:35:52;6.77;;;4.83;;
71626;SDS011;59475;52.464;13.590;2023-07-31T03:38:18;7.63;;;4.37;;
71626;SDS011;59475;52.464;13.590;2023-07-31T03:40:43;9.85;;;4.70;;
71626;SDS011;59475;52.464;13.590;2023-07-31T03:43:09;6.37;;;4.60;;
71626;SDS011;59475;52.464;13.590;2023-07-31T03:45:34;7.93;;;4.47;;
71626;SDS011;59475;52.464;13.590;2023-07-31T03:48:00;8.15;;;4.40;;
71626;SDS011;59475;52.464;13.590;2023-07-31T03:50:25;6.43;;;4.07;;
71626;SDS011;59475;52.464;13.590;2023-07-31T03:52:51;5.57;;;4.35;;
71626;SDS011;59475;52.464;13.590;2023-07-31T03:55:17;5.40;;;4.27;;
71626;SDS011;59475;52.464;13.590;2023-07-31T03:57:43;6.28;;;4.30;;
71626;SDS011;59475;52.464;13.590;2023-07-31T04:00:09;5.67;;;4.77;;
71626;SDS011;59475;52.464;13.590;2023-07-31T04:02:35;6.63;;;4.05;;
71626;SDS011;59475;52.464;13.590;2023-07-31T04:05:00;8.00;;;4.37;;
71626;SDS011;59475;52.464;13.590;2023-07-31T04:07:25;6.30;;;4.33;;
71626;SDS011;59475;52.464;13.590;2023-07-31T04:09:51;6.20;;;4.20;;
71626;SDS011;59475;52.464;13.590;2023-07-31T04:12:16;11.77;;;4.67;;
71626;SDS011;59475;52.464;13.590;2023-07-31T04:14:41;7.10;;;4.13;;
71626;SDS011;59475;52.464;13.590;2023-07-31T04:17:07;11.00;;;3.97;;
71626;SDS011;59475;52.464;13.590;2023-07-31T04:19:32;9.37;;;4.13;;
71626;SDS011;59475;52.464;13.590;2023-07-31T04:21:57;4.77;;;3.83;;
71626;SDS011;59475;52.464;13.590;2023-07-31T04:24:23;6.00;;;3.55;;
71626;SDS011;59475;52.464;13.590;2023-07-31T04:26:51;6.97;;;4.18;;
71626;SDS011;59475;52.464;13.590;2023-07-31T04:29:17;6.77;;;3.87;;
71626;SDS011;59475;52.464;13.590;2023-07-31T04:31:43;8.02;;;4.60;;
71626;SDS011;59475;52.464;13.590;2023-07-31T04:34:08;6.20;;;4.23;;
71626;SDS011;59475;52.464;13.590;2023-07-31T04:39:56;5.23;;;3.60;;
71626;SDS011;59475;52.464;13.590;2023-07-31T04:42:21;13.25;;;5.47;;
71626;SDS011;59475;52.464;13.590;2023-07-31T04:44:47;8.33;;;3.83;;
71626;SDS011;59475;52.464;13.590;2023-07-31T04:47:12;4.70;;;3.30;;
71626;SDS011;59475;52.464;13.590;2023-07-31T04:49:37;4.50;;;3.42;;
71626;SDS011;59475;52.464;13.590;2023-07-31T04:52:03;4.83;;;3.23;;
71626;SDS011;59475;52.464;13.590;2023-07-31T04:54:29;5.70;;;3.65;;
71626;SDS011;59475;52.464;13.590;2023-07-31T04:56:54;6.70;;;4.00;;
71626;SDS011;59475;52.464;13.590;2023-07-31T04:59:20;8.00;;;4.03;;
71626;SDS011;59475;52.464;13.590;2023-07-31T05:01:45;9.53;;;3.40;;
71626;SDS011;59475;52.464;13.590;2023-07-31T05:04:14;4.60;;;3.42;;
71626;SDS011;59475;52.464;13.590;2023-07-31T05:06:40;6.00;;;3.37;;
71626;SDS011;59475;52.464;13.590;2023-07-31T05:09:06;6.15;;;3.78;;
71626;SDS011;59475;52.464;13.590;2023-07-31T05:11:31;6.07;;;3.37;;
71626;SDS011;59475;52.464;13.590;2023-07-31T05:13:56;6.67;;;3.40;;
71626;SDS011;59475;52.464;13.590;2023-07-31T05:16:22;5.23;;;3.40;;
71626;SDS011;59475;52.464;13.590;2023-07-31T05:18:47;7.80;;;3.23;;
71626;SDS011;59475;52.464;13.590;2023-07-31T05:21:12;7.07;;;3.60;;
71626;SDS011;59475;52.464;13.590;2023-07-31T05:23:38;5.80;;;3.23;;
71626;SDS011;59475;52.464;13.590;2023-07-31T05:26:04;7.97;;;3.40;;
71626;SDS011;59475;52.464;13.590;2023-07-31T05:28:30;7.15;;;3.33;;
71626;SDS011;59475;52.464;13.590;2023-07-31T05:31:02;9.37;;;3.10;;
71626;SDS011;59475;52.464;13.590;2023-07-31T05:33:29;11.10;;;3.73;;
71626;SDS011;59475;52.464;13.590;2023-07-31T05:35:54;7.40;;;3.38;;
71626;SDS011;59475;52.464;13.590;2023-07-31T05:38:19;5.87;;;2.87;;
71626;SDS011;59475;52.464;13.590;2023-07-31T05:40:45;4.73;;;3.07;;
71626;SDS011;59475;52.464;13.590;2023-07-31T05:43:11;3.83;;;2.85;;
71626;SDS011;59475;52.464;13.590;2023-07-31T05:45:37;6.37;;;3.37;;
71626;SDS011;59475;52.464;13.590;2023-07-31T05:48:03;7.30;;;3.17;;
71626;SDS011;59475;52.464;13.590;2023-07-31T05:50:29;6.17;;;3.90;;
71626;SDS011;59475;52.464;13.590;2023-07-31T05:52:55;6.07;;;3.60;;
71626;SDS011;59475;52.464;13.590;2023-07-31T05:55:20;5.40;;;3.00;;
71626;SDS011;59475;52.464;13.590;2023-07-31T05:57:46;6.90;;;3.60;;
71626;SDS011;59475;52.464;13.590;2023-07-31T06:00:12;7.47;;;3.30;;
71626;SDS011;59475;52.464;13.590;2023-07-31T06:02:38;5.63;;;3.17;;
71626;SDS011;59475;52.464;13.590;2023-07-31T06:05:03;7.77;;;3.37;;
71626;SDS011;59475;52.464;13.590;2023-07-31T06:07:30;6.05;;;3.33;;
71626;SDS011;59475;52.464;13.590;2023-07-31T06:09:56;5.22;;;2.97;;
71626;SDS011;59475;52.464;13.590;2023-07-31T06:12:27;6.18;;;2.97;;
71626;SDS011;59475;52.464;13.590;2023-07-31T06:14:52;4.80;;;3.50;;
71626;SDS011;59475;52.464;13.590;2023-07-31T06:17:17;6.17;;;2.97;;
71626;SDS011;59475;52.464;13.590;2023-07-31T06:19:43;6.22;;;2.80;;
71626;SDS011;59475;52.464;13.590;2023-07-31T06:22:08;4.37;;;3.10;;
71626;SDS011;59475;52.464;13.590;2023-07-31T06:24:34;5.23;;;2.50;;
71626;SDS011;59475;52.464;13.590;2023-07-31T06:26:59;4.93;;;2.60;;
71626;SDS011;59475;52.464;13.590;2023-07-31T06:29:25;6.90;;;3.30;;
71626;SDS011;59475;52.464;13.590;2023-07-31T06:31:50;5.75;;;2.53;;
71626;SDS011;59475;52.464;13.590;2023-07-31T06:34:15;5.07;;;2.27;;
71626;SDS011;59475;52.464;13.590;2023-07-31T06:36:41;4.13;;;3.00;;
71626;SDS011;59475;52.464;13.590;2023-07-31T06:39:06;4.73;;;2.90;;
71626;SDS011;59475;52.464;13.590;2023-07-31T06:41:31;6.83;;;3.37;;
71626;SDS011;59475;52.464;13.590;2023-07-31T06:43:57;9.67;;;3.07;;
71626;SDS011;59475;52.464;13.590;2023-07-31T06:46:22;6.60;;;2.70;;
71626;SDS011;59475;52.464;13.590;2023-07-31T06:48:48;5.83;;;3.03;;
71626;SDS011;59475;52.464;13.590;2023-07-31T06:51:13;5.10;;;2.80;;
71626;SDS011;59475;52.464;13.590;2023-07-31T06:53:38;6.83;;;2.80;;
71626;SDS011;59475;52.464;13.590;2023-07-31T06:56:04;5.65;;;3.00;;
71626;SDS011;59475;52.464;13.590;2023-07-31T06:58:29;5.37;;;2.80;;
71626;SDS011;59475;52.464;13.590;2023-07-31T07:00:54;8.30;;;2.67;;
71626;SDS011;59475;52.464;13.590;2023-07-31T07:03:20;5.80;;;2.97;;
71626;SDS011;59475;52.464;13.590;2023-07-31T07:05:45;5.60;;;3.00;;
71626;SDS011;59475;52.464;13.590;2023-07-31T07:08:11;6.30;;;2.90;;
71626;SDS011;59475;52.464;13.590;2023-07-31T07:10:36;5.03;;;2.83;;
71626;SDS011;59475;52.464;13.590;2023-07-31T07:13:02;6.55;;;3.00;;
71626;SDS011;59475;52.464;13.590;2023-07-31T07:15:27;7.57;;;3.20;;
71626;SDS011;59475;52.464;13.590;2023-07-31T07:17:53;5.97;;;3.05;;
71626;SDS011;59475;52.464;13.590;2023-07-31T07:20:19;7.43;;;3.10;;
71626;SDS011;59475;52.464;13.590;2023-07-31T07:22:45;6.40;;;4.00;;
71626;SDS011;59475;52.464;13.590;2023-07-31T07:25:10;5.70;;;3.27;;
71626;SDS011;59475;52.464;13.590;2023-07-31T07:27:36;10.10;;;3.27;;
71626;SDS011;59475;52.464;13.590;2023-07-31T07:30:01;8.10;;;3.67;;
71626;SDS011;59475;52.464;13.590;2023-07-31T07:32:26;7.23;;;3.60;;
71626;SDS011;59475;52.464;13.590;2023-07-31T07:34:52;9.10;;;4.40;;
71626;SDS011;59475;52.464;13.590;2023-07-31T07:37:17;8.53;;;3.53;;
71626;SDS011;59475;52.464;13.590;2023-07-31T07:39:43;5.63;;;3.20;;
71626;SDS011;59475;52.464;13.590;2023-07-31T07:42:09;6.25;;;3.40;;
71626;SDS011;59475;52.464;13.590;2023-07-31T07:44:34;7.90;;;3.40;;
71626;SDS011;59475;52.464;13.590;2023-07-31T07:47:00;6.07;;;3.17;;
71626;SDS011;59475;52.464;13.590;2023-07-31T07:49:25;9.30;;;3.17;;
71626;SDS011;59475;52.464;13.590;2023-07-31T07:51:50;7.30;;;3.37;;
71626;SDS011;59475;52.464;13.590;2023-07-31T07:54:16;4.97;;;2.60;;
71626;SDS011;59475;52.464;13.590;2023-07-31T07:56:42;4.47;;;3.00;;
71626;SDS011;59475;52.464;13.590;2023-07-31T07:59:08;5.80;;;3.67;;
71626;SDS011;59475;52.464;13.590;2023-07-31T08:01:33;5.47;;;3.20;;
71626;SDS011;59475;52.464;13.590;2023-07-31T08:03:59;9.07;;;3.07;;
71626;SDS011;59475;52.464;13.590;2023-07-31T08:06:24;5.90;;;2.97;;
71626;SDS011;59475;52.464;13.590;2023-07-31T08:08:49;6.00;;;2.80;;
71626;SDS011;59475;52.464;13.590;2023-07-31T08:11:15;3.43;;;2.13;;
71626;SDS011;59475;52.464;13.590;2023-07-31T08:13:41;4.27;;;2.57;;
71626;SDS011;59475;52.464;13.590;2023-07-31T08:16:06;4.07;;;2.60;;
71626;SDS011;59475;52.464;13.590;2023-07-31T08:18:31;5.13;;;2.95;;
71626;SDS011;59475;52.464;13.590;2023-07-31T08:20:57;4.73;;;2.90;;
71626;SDS011;59475;52.464;13.590;2023-07-31T08:23:23;4.63;;;2.97;;
71626;SDS011;59475;52.464;13.590;2023-07-31T08:25:48;3.83;;;2.57;;
71626;SDS011;59475;52.464;13.590;2023-07-31T08:28:15;5.97;;;2.85;;
71626;SDS011;59475;52.464;13.590;2023-07-31T08:34:02;3.83;;;2.65;;
71626;SDS011;59475;52.464;13.590;2023-07-31T08:36:28;5.60;;;3.10;;
71626;SDS011;59475;52.464;13.590;2023-07-31T08:38:53;4.85;;;3.28;;
71626;SDS011;59475;52.464;13.590;2023-07-31T08:41:19;3.70;;;2.70;;
71626;SDS011;59475;52.464;13.590;2023-07-31T08:43:48;4.03;;;2.83;;
71626;SDS011;59475;52.464;13.590;2023-07-31T08:46:14;5.32;;;3.50;;
71626;SDS011;59475;52.464;13.590;2023-07-31T08:48:41;5.15;;;3.38;;
71626;SDS011;59475;52.464;13.590;2023-07-31T08:51:07;4.97;;;3.58;;
71626;SDS011;59475;52.464;13.590;2023-07-31T08:53:33;3.53;;;2.97;;
71626;SDS011;59475;52.464;13.590;2023-07-31T08:59:20;5.63;;;2.92;;
71626;SDS011;59475;52.464;13.590;2023-07-31T09:01:48;5.43;;;3.33;;
71626;SDS011;59475;52.464;13.590;2023-07-31T09:07:39;5.25;;;3.10;;
71626;SDS011;59475;52.464;13.590;2023-07-31T09:10:05;4.17;;;2.37;;
71626;SDS011;59475;52.464;13.590;2023-07-31T09:12:31;3.55;;;2.40;;
71626;SDS011;59475;52.464;13.590;2023-07-31T09:18:18;3.13;;;2.28;;
71626;SDS011;59475;52.464;13.590;2023-07-31T09:20:51;3.75;;;2.22;;
71626;SDS011;59475;52.464;13.590;2023-07-31T09:23:43;3.83;;;2.33;;
71626;SDS011;59475;52.464;13.590;2023-07-31T09:26:10;3.85;;;2.50;;
71626;SDS011;59475;52.464;13.590;2023-07-31T09:28:36;3.53;;;1.70;;
71626;SDS011;59475;52.464;13.590;2023-07-31T09:31:01;3.63;;;1.85;;
71626;SDS011;59475;52.464;13.590;2023-07-31T09:33:26;4.03;;;1.90;;
71626;SDS011;59475;52.464;13.590;2023-07-31T09:39:14;3.85;;;1.88;;
71626;SDS011;59475;52.464;13.590;2023-07-31T09:41:45;2.08;;;1.50;;
71626;SDS011;59475;52.464;13.590;2023-07-31T09:44:12;2.30;;;1.50;;
71626;SDS011;59475;52.464;13.590;2023-07-31T09:46:38;2.33;;;1.60;;
71626;SDS011;59475;52.464;13.590;2023-07-31T09:49:07;2.50;;;1.80;;
71626;SDS011;59475;52.464;13.590;2023-07-31T09:51:34;1.88;;;1.20;;
71626;SDS011;59475;52.464;13.590;2023-07-31T09:54:13;2.38;;;1.05;;
71626;SDS011;59475;52.464;13.590;2023-07-31T09:56:43;2.58;;;1.58;;
71626;SDS011;59475;52.464;13.590;2023-07-31T09:59:14;4.80;;;1.38;;
71626;SDS011;59475;52.464;13.590;2023-07-31T10:01:41;2.57;;;1.67;;
71626;SDS011;59475;52.464;13.590;2023-07-31T10:04:08;3.33;;;1.50;;
71626;SDS011;59475;52.464;13.590;2023-07-31T10:06:35;2.70;;;1.27;;
71626;SDS011;59475;52.464;13.590;2023-07-31T10:09:02;5.50;;;2.00;;
71626;SDS011;59475;52.464;13.590;2023-07-31T10:11:30;3.45;;;1.90;;
71626;SDS011;59475;52.464;13.590;2023-07-31T10:13:58;4.43;;;2.50;;
71626;SDS011;59475;52.464;13.590;2023-07-31T10:16:24;3.20;;;2.40;;
71626;SDS011;59475;52.464;13.590;2023-07-31T10:18:49;2.97;;;2.17;;
71626;SDS011;59475;52.464;13.590;2023-07-31T10:21:16;5.60;;;2.42;;
71626;SDS011;59475;52.464;13.590;2023-07-31T10:23:42;3.38;;;1.85;;
71626;SDS011;59475;52.464;13.590;2023-07-31T10:29:31;4.70;;;2.47;;
71626;SDS011;59475;52.464;13.590;2023-07-31T10:31:57;5.88;;;2.90;;
71626;SDS011;59475;52.464;13.590;2023-07-31T10:34:24;6.57;;;2.67;;
71626;SDS011;59475;52.464;13.590;2023-07-31T10:36:50;3.47;;;2.05;;
71626;SDS011;59475;52.464;13.590;2023-07-31T10:39:35;5.30;;;3.30;;
71626;SDS011;59475;52.464;13.590;2023-07-31T10:45:36;6.32;;;3.30;;
71626;SDS011;59475;52.464;13.590;2023-07-31T10:50:33;5.72;;;3.47;;
71626;SDS011;59475;52.464;13.590;2023-07-31T10:53:03;7.07;;;3.90;;
71626;SDS011;59475;52.464;13.590;2023-07-31T10:58:11;4.65;;;2.63;;
71626;SDS011;59475;52.464;13.590;2023-07-31T11:00:38;4.17;;;3.20;;
71626;SDS011;59475;52.464;13.590;2023-07-31T11:03:05;5.05;;;3.05;;
71626;SDS011;59475;52.464;13.590;2023-07-31T11:05:47;8.30;;;2.63;;
71626;SDS011;59475;52.464;13.590;2023-07-31T11:08:26;5.97;;;2.50;;
71626;SDS011;59475;52.464;13.590;2023-07-31T11:13:30;4.53;;;2.67;;
71626;SDS011;59475;52.464;13.590;2023-07-31T11:15:57;4.65;;;2.97;;
71626;SDS011;59475;52.464;13.590;2023-07-31T11:18:22;6.83;;;3.03;;
71626;SDS011;59475;52.464;13.590;2023-07-31T11:20:48;3.85;;;2.47;;
71626;SDS011;59475;52.464;13.590;2023-07-31T11:23:15;5.43;;;2.60;;
71626;SDS011;59475;52.464;13.590;2023-07-31T11:25:42;4.53;;;3.20;;
71626;SDS011;59475;52.464;13.590;2023-07-31T11:28:12;6.05;;;3.10;;
71626;SDS011;59475;52.464;13.590;2023-07-31T11:30:39;6.20;;;3.10;;
71626;SDS011;59475;52.464;13.590;2023-07-31T11:33:08;3.20;;;2.53;;
71626;SDS011;59475;52.464;13.590;2023-07-31T11:35:40;4.90;;;2.40;;
71626;SDS011;59475;52.464;13.590;2023-07-31T11:38:07;4.55;;;2.05;;
71626;SDS011;59475;52.464;13.590;2023-07-31T11:40:40;4.65;;;2.58;;
71626;SDS011;59475;52.464;13.590;2023-07-31T11:43:12;4.18;;;2.17;;
71626;SDS011;59475;52.464;13.590;2023-07-31T11:45:41;3.77;;;2.47;;
71626;SDS011;59475;52.464;13.590;2023-07-31T11:48:10;6.22;;;2.25;;
71626;SDS011;59475;52.464;13.590;2023-07-31T11:50:35;3.80;;;2.38;;
71626;SDS011;59475;52.464;13.590;2023-07-31T11:53:02;5.07;;;2.50;;
71626;SDS011;59475;52.464;13.590;2023-07-31T11:55:32;6.25;;;2.75;;
71626;SDS011;59475;52.464;13.590;2023-07-31T11:57:58;4.60;;;2.57;;
71626;SDS011;59475;52.464;13.590;2023-07-31T12:03:46;4.63;;;2.05;;
71626;SDS011;59475;52.464;13.590;2023-07-31T12:06:12;3.77;;;2.40;;
71626;SDS011;59475;52.464;13.590;2023-07-31T12:08:37;3.55;;;2.60;;
71626;SDS011;59475;52.464;13.590;2023-07-31T12:11:06;4.47;;;2.63;;
71626;SDS011;59475;52.464;13.590;2023-07-31T12:13:36;2.53;;;1.75;;
71626;SDS011;59475;52.464;13.590;2023-07-31T12:16:02;3.53;;;2.03;;
71626;SDS011;59475;52.464;13.590;2023-07-31T12:18:29;3.50;;;2.20;;
71626;SDS011;59475;52.464;13.590;2023-07-31T12:21:00;5.15;;;2.55;;
71626;SDS011;59475;52.464;13.590;2023-07-31T12:23:32;4.33;;;2.63;;
71626;SDS011;59475;52.464;13.590;2023-07-31T12:26:06;4.72;;;2.22;;
71626;SDS011;59475;52.464;13.590;2023-07-31T12:28:39;2.65;;;1.85;;
71626;SDS011;59475;52.464;13.590;2023-07-31T12:31:08;4.13;;;2.30;;
71626;SDS011;59475;52.464;13.590;2023-07-31T12:33:35;5.05;;;2.55;;
71626;SDS011;59475;52.464;13.590;2023-07-31T12:36:07;4.63;;;2.57;;
71626;SDS011;59475;52.464;13.590;2023-07-31T12:38:34;3.00;;;1.75;;
71626;SDS011;59475;52.464;13.590;2023-07-31T12:40:59;6.30;;;2.17;;
71626;SDS011;59475;52.464;13.590;2023-07-31T12:43:25;4.93;;;2.20;;
71626;SDS011;59475;52.464;13.590;2023-07-31T12:45:50;5.37;;;2.47;;
71626;SDS011;59475;52.464;13.590;2023-07-31T12:48:16;4.67;;;2.17;;
71626;SDS011;59475;52.464;13.590;2023-07-31T12:54:03;1.97;;;1.60;;
71626;SDS011;59475;52.464;13.590;2023-07-31T12:56:29;3.05;;;1.92;;
71626;SDS011;59475;52.464;13.590;2023-07-31T12:58:54;5.17;;;1.97;;
71626;SDS011;59475;52.464;13.590;2023-07-31T13:01:20;2.60;;;1.90;;
71626;SDS011;59475;52.464;13.590;2023-07-31T13:03:45;1.97;;;1.40;;
71626;SDS011;59475;52.464;13.590;2023-07-31T13:06:10;3.63;;;1.50;;
71626;SDS011;59475;52.464;13.590;2023-07-31T13:08:36;4.30;;;1.90;;
71626;SDS011;59475;52.464;13.590;2023-07-31T13:11:01;2.93;;;1.87;;
71626;SDS011;59475;52.464;13.590;2023-07-31T13:13:27;2.97;;;1.60;;
71626;SDS011;59475;52.464;13.590;2023-07-31T13:15:52;2.22;;;1.88;;
71626;SDS011;59475;52.464;13.590;2023-07-31T13:18:17;3.17;;;2.00;;
71626;SDS011;59475;52.464;13.590;2023-07-31T13:20:43;2.90;;;1.53;;
71626;SDS011;59475;52.464;13.590;2023-07-31T13:23:08;5.27;;;2.67;;
71626;SDS011;59475;52.464;13.590;2023-07-31T13:25:34;3.53;;;1.92;;
71626;SDS011;59475;52.464;13.590;2023-07-31T13:31:20;3.80;;;2.20;;
71626;SDS011;59475;52.464;13.590;2023-07-31T13:33:46;3.10;;;2.03;;
71626;SDS011;59475;52.464;13.590;2023-07-31T13:36:11;4.87;;;2.60;;
71626;SDS011;59475;52.464;13.590;2023-07-31T13:38:39;4.38;;;2.03;;
71626;SDS011;59475;52.464;13.590;2023-07-31T13:41:04;4.83;;;2.30;;
71626;SDS011;59475;52.464;13.590;2023-07-31T13:46:52;6.90;;;2.83;;
71626;SDS011;59475;52.464;13.590;2023-07-31T13:49:17;5.13;;;2.30;;
71626;SDS011;59475;52.464;13.590;2023-07-31T13:51:42;4.30;;;3.00;;
71626;SDS011;59475;52.464;13.590;2023-07-31T13:54:09;5.97;;;2.23;;
71626;SDS011;59475;52.464;13.590;2023-07-31T13:56:36;6.50;;;2.15;;
71626;SDS011;59475;52.464;13.590;2023-07-31T13:59:02;4.43;;;2.53;;
71626;SDS011;59475;52.464;13.590;2023-07-31T14:01:27;6.73;;;2.60;;
71626;SDS011;59475;52.464;13.590;2023-07-31T14:03:53;4.27;;;2.40;;
71626;SDS011;59475;52.464;13.590;2023-07-31T14:06:18;5.60;;;2.30;;
71626;SDS011;59475;52.464;13.590;2023-07-31T14:08:44;5.90;;;2.60;;
71626;SDS011;59475;52.464;13.590;2023-07-31T14:11:09;3.50;;;2.10;;
71626;SDS011;59475;52.464;13.590;2023-07-31T14:13:35;3.25;;;2.13;;
71626;SDS011;59475;52.464;13.590;2023-07-31T14:16:00;4.07;;;2.53;;
71626;SDS011;59475;52.464;13.590;2023-07-31T14:18:25;4.47;;;2.47;;
71626;SDS011;59475;52.464;13.590;2023-07-31T14:20:51;6.13;;;2.47;;
71626;SDS011;59475;52.464;13.590;2023-07-31T14:23:17;3.97;;;2.47;;
71626;SDS011;59475;52.464;13.590;2023-07-31T14:25:42;7.07;;;2.50;;
71626;SDS011;59475;52.464;13.590;2023-07-31T14:28:07;3.37;;;2.30;;
71626;SDS011;59475;52.464;13.590;2023-07-31T14:30:33;5.55;;;2.70;;
71626;SDS011;59475;52.464;13.590;2023-07-31T14:32:58;4.67;;;2.50;;
71626;SDS011;59475;52.464;13.590;2023-07-31T14:35:25;2.90;;;2.30;;
71626;SDS011;59475;52.464;13.590;2023-07-31T14:37:51;4.63;;;2.43;;
71626;SDS011;59475;52.464;13.590;2023-07-31T14:40:17;9.40;;;2.40;;
71626;SDS011;59475;52.464;13.590;2023-07-31T14:42:42;7.43;;;2.70;;
71626;SDS011;59475;52.464;13.590;2023-07-31T14:45:08;4.27;;;2.37;;
71626;SDS011;59475;52.464;13.590;2023-07-31T14:47:36;5.78;;;2.42;;
71626;SDS011;59475;52.464;13.590;2023-07-31T14:50:01;5.33;;;2.73;;
71626;SDS011;59475;52.464;13.590;2023-07-31T14:55:49;5.07;;;2.70;;
71626;SDS011;59475;52.464;13.590;2023-07-31T14:58:15;3.93;;;2.80;;
71626;SDS011;59475;52.464;13.590;2023-07-31T15:00:42;5.65;;;2.72;;
71626;SDS011;59475;52.464;13.590;2023-07-31T15:03:07;3.30;;;2.17;;
71626;SDS011;59475;52.464;13.590;2023-07-31T15:05:32;4.63;;;2.30;;
71626;SDS011;59475;52.464;13.590;2023-07-31T15:07:58;6.57;;;2.33;;
71626;SDS011;59475;52.464;13.590;2023-07-31T15:10:23;4.37;;;2.60;;
71626;SDS011;59475;52.464;13.590;2023-07-31T15:12:48;3.80;;;2.67;;
71626;SDS011;59475;52.464;13.590;2023-07-31T15:15:15;5.00;;;2.40;;
71626;SDS011;59475;52.464;13.590;2023-07-31T15:17:40;4.40;;;2.50;;
71626;SDS011;59475;52.464;13.590;2023-07-31T15:20:06;3.57;;;2.43;;
71626;SDS011;59475;52.464;13.590;2023-07-31T15:22:32;5.93;;;2.67;;
71626;SDS011;59475;52.464;13.590;2023-07-31T15:24:57;6.17;;;2.77;;
71626;SDS011;59475;52.464;13.590;2023-07-31T15:27:22;4.37;;;2.70;;
71626;SDS011;59475;52.464;13.590;2023-07-31T15:29:49;4.60;;;2.70;;
71626;SDS011;59475;52.464;13.590;2023-07-31T15:32:16;4.43;;;2.55;;